Tiempo atmosférico en la estación meteorológica de Jimena de la Frontera, Cádiz (50 m.)



Fecha
DESCASC
Temp. máxima en grados centígrados (hora)
DESCASC
Temp. mínima en grados centígrados (hora)
DESCASC
Temp. media en grados centígrados
DESCASC
Racha de viento máxima en m/sg (hora)
DESCASC
Velocidad máxima media en intervalos de 10 minutos(hora)
DESCASC
Precipitaciones diarias en mm
DESCASC
Precipitaciones de 00:00 a 06:00 en mm
DESCASC
Precipitaciones de 06:00 a 12:00 en mm
DESCASC
Precipitaciones de 12:00 a 18:00 en mm
DESCASC
Precipitaciones de 18:00 a 24:00 en mm
DESCASC
22-11-2020 18.8 (13:00) 7.8 (23:59) 13.3 14.17 (11:40) 8.33 (12:50) 0 0 0 0 0
21-11-2020 18.8 (11:50) 9.4 (03:00) 14.1 13.89 (14:40) 7.5 (12:20) 0 0 0 0 0
20-11-2020 21.3 (13:40) 9.5 (08:20) 15.4 10.28 (14:10) 5.83 (12:50) 0 0 0 0 0
19-11-2020 21.3 (12:00) 12.5 (00:00) 16.9 15.28 (16:10) 8.61 (16:40) 0 0 0 0 0
18-11-2020 21.3 (14:20) 15.9 (00:00) 18.6 10.56 (14:40) 6.11 (15:20) 0 0 0 0 0
17-11-2020 23 (13:00) 8.6 (00:00) 15.8 6.39 (13:30) 3.33 (13:40) 0 0 0 0 0
16-11-2020 27 (14:20) 10.6 (00:00) 18.8 7.78 (15:20) 4.72 (15:10) 0 0 0 0 0
15-11-2020 24.7 (15:20) 11.1 (00:00) 17.9 3.61 (16:10) 2.22 (15:50) 0.2 0.2 0 0 0
14-11-2020 20.6 (15:00) 14.2 (00:00) 17.4 3.06 (16:20) 1.94 (16:30) 2 0 1.8 0.2 0
13-11-2020 20.7 (13:30) 12.9 (00:00) 16.8 7.22 (14:40) 4.44 (14:50) 0 0 0 0 0
12-11-2020 20.1 (14:40) 12.3 (00:00) 16.2 13.33 (13:40) 7.78 (13:40) 0 0 0 0 0
11-11-2020 20 (15:40) 11.5 (00:00) 15.8 12.5 (11:00) 7.5 (12:20) 0 0 0 0 0
10-11-2020 22.4 (14:50) 8.4 (00:00) 15.4 7.78 (13:20) 4.17 (13:20) 0 0 0 0 0
09-11-2020 23.2 (14:40) 8.3 (00:00) 15.8 6.39 (16:30) 3.61 (16:00) 0 0 0 0 0
08-11-2020 22.4 (15:50) 9 (00:00) 15.7 6.39 (13:20) 3.61 (13:20) 0 0 0 0 0
07-11-2020 22.1 (14:50) 12.8 (00:00) 17.5 9.17 (15:10) 5 (15:00) 2 1.8 0.2 0 0
06-11-2020 25.3 (13:50) 13.5 (00:00) 19.4 14.72 (12:30) 7.5 (12:20) 0.4 0 0 0 0.4
05-11-2020 21 (12:50) 16.2 (00:00) 18.6 13.61 (04:20) 8.61 (04:10) 3.6 2 1.6 0 0
04-11-2020 19.5 (12:10) 13.6 (00:00) 16.6 17.5 (23:20) 9.17 (23:20) 12.8 0 1.2 0.8 10.8
03-11-2020 22.9 (15:40) 7.2 (00:00) 15 4.44 (16:20) 2.5 (16:20) 0 0 0 0 0
02-11-2020 23.1 (14:20) 7.1 (00:00) 15.1 5.28 (15:30) 3.33 (14:50) 0 0 0 0 0
01-11-2020 25 (13:50) 7.7 (00:00) 16.3 5.83 (15:20) 3.33 (14:50) 0 0 0 0 0
31-10-2020 25.6 (15:10) 7.9 (00:00) 16.8 5.56 (15:10) 3.33 (14:20) 0 0 0 0 0
30-10-2020 23.3 (12:20) 7.8 (00:00) 15.5 12.22 (12:40) 6.67 (13:00) 0 0 0 0 0
29-10-2020 24.1 (13:50) 6.1 (00:00) 15.1 10 (14:30) 5.83 (16:40) 0 0 0 0 0
28-10-2020 24.5 (14:10) 7 (00:00) 15.8 6.67 (15:20) 3.89 (15:30) 0 0 0 0 0
27-10-2020 23.3 (15:20) 5.6 (00:00) 14.4 7.22 (14:40) 3.89 (14:20) 0 0 0 0 0

Gráficas

Temp. máximas Temp. mínimas Temp. medias Precipitaciones Rachas de viento máximas Velocidades máximas media en intervalos de 10 minutos

Datos horarios

Fecha y hora oficial Temperatura (ºC) Velocidad del viento (km/h) Dirección del viento Racha (km/h) Dirección de racha Precipitación (mm) Presión (hPa) Tendencia (hPa) Humedad (%)
2020-11-25 23:00:00 12.3 4 Noroeste 16 Sudoeste 0.4 -- -- 99
2020-11-25 22:00:00 12.3 4 Oeste 9 Noroeste 1.4 -- -- 99
2020-11-25 21:00:00 12.4 4 Sur 16 Nordeste 13.2 -- -- 98
2020-11-25 20:00:00 12.6 5 Noroeste 13 Oeste 0.6 -- -- 97
2020-11-25 19:00:00 12.8 0 Calma 6 Oeste 0.8 -- -- 97
2020-11-25 18:00:00 12.8 3 Sur 8 Este 0.2 -- -- 96
2020-11-25 17:00:00 12.7 7 Este 42 Oeste 11.8 -- -- 96
2020-11-25 16:00:00 15.2 7 Sur 31 Oeste 0.2 -- -- 90
2020-11-25 15:00:00 16 9 Sudeste 21 Este 0.4 -- -- 87
2020-11-25 14:00:00 16.6 11 Sudeste 28 Sudeste 0.4 -- -- 89
2020-11-25 13:00:00 17.6 18 Sudeste 31 Sudeste 0 -- -- 79
2020-11-25 12:00:00 17.7 7 Sudeste 12 Sudeste 0 -- -- 84
2020-11-25 11:00:00 16.4 0 Calma 5 Oeste 0 -- -- 88
2020-11-25 10:00:00 14 2 Oeste 6 Norte 0 -- -- 96
2020-11-25 09:00:00 13.1 3 Sudeste 8 Sudoeste 0 -- -- 98
2020-11-25 08:00:00 12.8 4 Sudoeste 7 Sudoeste 0 -- -- 97
2020-11-25 07:00:00 12.9 2 Norte 8 Este 0 -- -- 97
2020-11-25 06:00:00 13.1 0 Calma 5 Este 0 -- -- 97
2020-11-25 05:00:00 13.3 0 Calma 9 Oeste 0 -- -- 96
2020-11-25 04:00:00 13.6 2 Sudeste 4 Sudeste 0 -- -- 95
2020-11-25 03:00:00 13.7 2 Norte 5 Nordeste 0 -- -- 94
2020-11-25 02:00:00 13.7 0 Calma 5 Este 0 -- -- 94
2020-11-25 01:00:00 13.9 0 Calma 4 Sudeste 0 -- -- 92
2020-11-25 00:00:00 14.3 2 Nordeste 6 Este 0 -- -- 92
2020-11-24 23:00:00 14.7 3 Nordeste 6 Este 0 -- -- 91
2020-11-24 22:00:00 14.9 3 Oeste 5 Oeste 0 -- -- 88
2020-11-24 21:00:00 15.2 0 Calma 5 Oeste 0 -- -- 87
2020-11-24 20:00:00 15.5 0 Calma 12 Este 0 -- -- 84
2020-11-24 19:00:00 15.8 4 Sur 13 Sudeste 0 -- -- 83
2020-11-24 18:00:00 16.5 9 Sudeste 15 Sudeste 0 -- -- 79
2020-11-24 17:00:00 16.8 10 Sudeste 21 Sudeste 0 -- -- 76
2020-11-24 16:00:00 18.4 11 Sudeste 22 Sudeste 0 -- -- 70
2020-11-24 15:00:00 19.1 9 Sudeste 22 Sudeste 0 -- -- 67
2020-11-24 14:00:00 19 12 Sudeste 23 Sudeste 0 -- -- 66
2020-11-24 13:00:00 19.2 9 Sudeste 31 Este 0 -- -- 64
2020-11-24 12:00:00 18.6 11 Este 21 Este 0 -- -- 67
2020-11-24 11:00:00 15.6 2 Oeste 5 Oeste 0 -- -- 74
2020-11-24 10:00:00 11.1 0 Calma 5 Este 0 -- -- 89
2020-11-24 09:00:00 7.8 2 Este 6 Norte 0 -- -- 97
2020-11-24 08:00:00 7.3 0 Calma 5 Este 0 -- -- 97
2020-11-24 07:00:00 6.8 2 Nordeste 5 Este 0 -- -- 97
2020-11-24 06:00:00 5.4 3 Este 5 Nordeste 0 -- -- 96
2020-11-24 05:00:00 5.3 0 Calma 4 Este 0 -- -- 95
2020-11-24 04:00:00 5.9 0 Calma 4 Este 0 -- -- 94
2020-11-24 03:00:00 6.2 0 Calma 5 Nordeste 0 -- -- 94
2020-11-24 02:00:00 6.1 2 Nordeste 5 Este 0 -- -- 93
2020-11-24 01:00:00 6.8 2 Nordeste 6 Nordeste 0 -- -- 91
2020-11-24 00:00:00 7.2 3 Nordeste 5 Este 0 -- -- 91
2020-11-23 23:00:00 8.1 2 Nordeste 5 Nordeste 0 -- -- 88
2020-11-23 22:00:00 9.8 0 Calma 4 Noroeste 0 -- -- 84
2020-11-23 21:00:00 11.9 4 Noroeste 12 Este 0 -- -- 81
2020-11-23 20:00:00 14.1 6 Este 16 Este 0 -- -- 75
2020-11-23 19:00:00 14.6 10 Este 24 Sudeste 0 -- -- 75
2020-11-23 18:00:00 15.7 9 Sudeste 27 Sudeste 0 -- -- 69
2020-11-23 17:00:00 16.7 14 Sudeste 34 Este 0 -- -- 62
2020-11-23 16:00:00 17.8 19 Este 36 Sudeste 0 -- -- 59
2020-11-23 15:00:00 18.2 22 Sudeste 41 Este 0 -- -- 55
2020-11-23 14:00:00 18.4 17 Sudeste 36 Sudeste 0 -- -- 57
2020-11-23 13:00:00 18.1 18 Este 38 Este 0 -- -- 58
2020-11-23 12:00:00 18.3 19 Este 40 Este 0 -- -- 58
2020-11-23 11:00:00 18 18 Sudeste 36 Este 0 -- -- 59
2020-11-23 10:00:00 14.5 8 Este 18 Este 0 -- -- 74
2020-11-23 09:00:00 8.9 0 Calma 9 Norte 0 -- -- 93
2020-11-23 08:00:00 7.8 5 Noroeste 9 Noroeste 0 -- -- 95
2020-11-23 07:00:00 6.9 2 Norte 6 Noroeste 0 -- -- 94
2020-11-23 06:00:00 7.2 0 Calma 6 Noroeste 0 -- -- 94
2020-11-23 05:00:00 7.1 2 Noroeste 8 Noroeste 0 -- -- 94
2020-11-23 04:00:00 7.1 0 Calma 5 Noroeste 0 -- -- 91
2020-11-23 03:00:00 8 4 Noroeste 8 Noroeste 0 -- -- 91
2020-11-23 02:00:00 8.2 4 Noroeste 6 Noroeste 0 -- -- 91
2020-11-23 01:00:00 7.8 3 Noroeste 6 Norte 0 -- -- 91
2020-11-23 00:00:00 7.8 0 Calma 5 Noroeste 0 -- -- 88
2020-11-22 23:00:00 8.7 4 Noroeste 9 Noroeste 0 -- -- 88
2020-11-22 22:00:00 10 6 Noroeste 22 Este 0 -- -- 83
2020-11-22 21:00:00 14.8 13 Sudeste 21 Sudeste 0 -- -- 69
2020-11-22 20:00:00 14.9 9 Sudeste 21 Este 0 -- -- 72
2020-11-22 19:00:00 15 7 Sudeste 20 Sudeste 0 -- -- 71
2020-11-22 18:00:00 16.1 13 Este 32 Sudeste 0 -- -- 62
2020-11-22 17:00:00 17.4 18 Este 38 Sudeste 0 -- -- 53
2020-11-22 16:00:00 18.2 20 Este 39 Sudeste 0 -- -- 52
2020-11-22 15:00:00 18.7 18 Este 42 Este 0 -- -- 53
2020-11-22 14:00:00 18.6 26 Este 49 Este 0 -- -- 51
2020-11-22 13:00:00 18.8 23 Este 44 Este 0 -- -- 51
2020-11-22 12:00:00 18.3 28 Sudeste 51 Este 0 -- -- 54
2020-11-22 11:00:00 18.2 26 Sudeste 47 Este 0 -- -- 57
2020-11-22 10:00:00 17 17 Sudeste 32 Sudeste 0 -- -- 65
2020-11-22 09:00:00 15.9 14 Sudeste 26 Sudeste 0 -- -- 67
2020-11-22 08:00:00 15.6 13 Este 24 Este 0 -- -- 70
2020-11-22 07:00:00 16 15 Sudeste 34 Sudeste 0 -- -- 70
2020-11-22 06:00:00 16.2 13 Este 32 Este 0 -- -- 71
2020-11-22 05:00:00 15.7 10 Este 29 Este 0 -- -- 70
2020-11-22 04:00:00 16.3 21 Sudeste 36 Este 0 -- -- 68
2020-11-22 03:00:00 16.3 19 Sudeste 38 Este 0 -- -- 68
2020-11-22 02:00:00 16.3 14 Sudeste 39 Este 0 -- -- 74
2020-11-22 01:00:00 16.5 22 Sudeste 46 Este 0 -- -- 73
2020-11-22 00:00:00 16.5 19 Sudeste 34 Este 0 -- -- 75
2020-11-21 23:00:00 16.4 14 Este 37 Este 0 -- -- 78
2020-11-21 22:00:00 16.6 19 Este 43 Este 0 -- -- 77
2020-11-21 21:00:00 16.5 19 Este 32 Este 0 -- -- 78
2020-11-21 20:00:00 16.4 15 Este 33 Sudeste 0 -- -- 79
2020-11-21 19:00:00 16.5 15 Este 36 Este 0 -- -- 80
2020-11-21 18:00:00 17 16 Este 40 Sudeste 0 -- -- 76
2020-11-21 17:00:00 17.7 23 Este 48 Este 0 -- -- 72
2020-11-21 16:00:00 18.1 24 Este 43 Este 0 -- -- 73
2020-11-21 15:00:00 17.7 19 Sudeste 50 Este 0 -- -- 80
2020-11-21 14:00:00 18.7 25 Este 46 Sudeste 0 -- -- 74
2020-11-21 13:00:00 18.1 16 Este 45 Este 0 -- -- 80
2020-11-21 12:00:00 18.5 24 Este 45 Este 0 -- -- 78
2020-11-21 11:00:00 17.9 20 Este 38 Este 0 -- -- 82
2020-11-21 10:00:00 18.3 15 Este 41 Este 0 -- -- 81
2020-11-21 09:00:00 17.5 14 Este 28 Sudeste 0 -- -- 84
2020-11-21 08:00:00 16.9 14 Sudeste 30 Sudeste 0 -- -- 85
2020-11-21 07:00:00 15.1 9 Sudeste 22 Este 0 -- -- 96
2020-11-21 06:00:00 12.4 6 Este 20 Este 0 -- -- 100
2020-11-21 05:00:00 10.6 3 Norte 11 Este 0 -- -- 98
2020-11-21 04:00:00 9.8 3 Noroeste 8 Norte 0 -- -- 98
2020-11-21 03:00:00 9.4 3 Este 8 Nordeste 0 -- -- 97
2020-11-21 02:00:00 10 2 Nordeste 8 Norte 0 -- -- 97
2020-11-21 01:00:00 10.4 4 Nordeste 8 Norte 0 -- -- 97
2020-11-21 00:00:00 11 3 Norte 7 Nordeste 0 -- -- 96
2020-11-20 23:00:00 11.3 2 Noroeste 6 Nordeste 0 -- -- 94
2020-11-20 22:00:00 11.8 3 Nordeste 7 Norte 0 -- -- 93
2020-11-20 21:00:00 12.9 4 Norte 10 Nordeste 0 -- -- 91
2020-11-20 20:00:00 14.6 4 Nordeste 13 Sudeste 0 -- -- 87
2020-11-20 19:00:00 16.8 8 Sudeste 17 Sur 0 -- -- 84
2020-11-20 18:00:00 17.9 8 Sudeste 30 Sudeste 0 -- -- 78
2020-11-20 17:00:00 19.3 16 Sudeste 27 Sudeste 0 -- -- 71
2020-11-20 16:00:00 20.5 13 Sudeste 32 Sudeste 0 -- -- 68
2020-11-20 15:00:00 20.8 18 Sudeste 37 Sudeste 0 -- -- 65
2020-11-20 14:00:00 21.1 17 Sudeste 35 Sudeste 0 -- -- 64
2020-11-20 13:00:00 20.9 20 Sudeste 35 Sudeste 0 -- -- 66
2020-11-20 12:00:00 20.8 15 Sudeste 29 Este 0 -- -- 66
2020-11-20 11:00:00 19.7 16 Sudeste 32 Este 0 -- -- 70
2020-11-20 10:00:00 13.6 0 Calma 4 Norte 0 -- -- 93
2020-11-20 09:00:00 10.5 0 Calma 4 Este 0 -- -- 99
2020-11-20 08:00:00 9.8 0 Calma 9 Nordeste 0 -- -- 98
2020-11-20 07:00:00 10.1 2 Noroeste 6 Nordeste 0 -- -- 97
2020-11-20 06:00:00 10 0 Calma 8 Nordeste 0 -- -- 97
2020-11-20 05:00:00 10.1 3 Norte 7 Nordeste 0 -- -- 96
2020-11-20 04:00:00 10.8 2 Este 6 Noroeste 0 -- -- 95
2020-11-20 03:00:00 11.4 4 Norte 11 Noroeste 0 -- -- 94
2020-11-20 02:00:00 11.8 4 Norte 9 Nordeste 0 -- -- 93
2020-11-20 01:00:00 12 5 Norte 10 Norte 0 -- -- 91
2020-11-20 00:00:00 13 4 Nordeste 6 Norte 0 -- -- 88
2020-11-19 23:00:00 14.1 4 Norte 10 Oeste 0 -- -- 85
2020-11-19 22:00:00 17.5 6 Este 32 Este 0 -- -- 72
2020-11-19 21:00:00 17.9 21 Este 40 Este 0 -- -- 71
2020-11-19 20:00:00 17.8 18 Este 36 Este 0 -- -- 74
2020-11-19 19:00:00 18 17 Este 38 Sudeste 0 -- -- 73
2020-11-19 18:00:00 18.5 22 Este 46 Sudeste 0 -- -- 70
2020-11-19 17:00:00 19.3 29 Sudeste 55 Este 0 -- -- 67
2020-11-19 16:00:00 20.4 22 Este 47 Este 0 -- -- 64
2020-11-19 15:00:00 20.6 26 Sudeste 51 Sudeste 0 -- -- 66
2020-11-19 14:00:00 21.1 26 Sudeste 49 Sudeste 0 -- -- 66
2020-11-19 13:00:00 21 27 Sudeste 43 Sudeste 0 -- -- 66
2020-11-19 12:00:00 21.3 28 Sudeste 47 Sudeste 0 -- -- 64
2020-11-19 11:00:00 20.5 20 Sudeste 40 Este 0 -- -- 67
2020-11-19 10:00:00 18.8 15 Este 30 Este 0 -- -- 75
2020-11-19 09:00:00 12.7 6 Noroeste 12 Norte 0 -- -- 96
2020-11-19 08:00:00 12.8 5 Norte 11 Norte 0 -- -- 94
2020-11-19 07:00:00 13.7 3 Norte 8 Noroeste 0 -- -- 94
2020-11-19 06:00:00 13.6 5 Norte 10 Nordeste 0 -- -- 93
2020-11-19 05:00:00 13.6 5 Nordeste 9 Nordeste 0 -- -- 93
2020-11-19 04:00:00 14.7 7 Nordeste 9 Este 0 -- -- 90
2020-11-19 03:00:00 15.6 5 Nordeste 9 Nordeste 0 -- -- 90
2020-11-19 02:00:00 15.4 4 Este 7 Este 0 -- -- 91
2020-11-19 01:00:00 16.2 0 Calma 10 Sudeste 0 -- -- 88
2020-11-19 00:00:00 17.3 6 Sudeste 12 Sudeste 0 -- -- 85
2020-11-18 23:00:00 17.8 8 Sudeste 15 Sudeste 0 -- -- 82
2020-11-18 22:00:00 17.9 7 Este 14 Sudeste 0 -- -- 83
2020-11-18 21:00:00 17.8 3 Sudeste 19 Sudeste 0 -- -- 85
2020-11-18 20:00:00 17.7 8 Sudeste 21 Sudeste 0 -- -- 84
2020-11-18 19:00:00 17.8 10 Sudeste 21 Sudeste 0 -- -- 85
2020-11-18 18:00:00 18.3 9 Sudeste 26 Sudeste 0 -- -- 82
2020-11-18 17:00:00 19.3 14 Sudeste 35 Sudeste 0 -- -- 79
2020-11-18 16:00:00 20.3 20 Sudeste 38 Este 0 -- -- 73
2020-11-18 15:00:00 21.1 18 Sudeste 38 Este 0 -- -- 67
2020-11-18 14:00:00 21.1 19 Sudeste 33 Sudeste 0 -- -- 67
2020-11-18 13:00:00 20.8 13 Sudeste 30 Sudeste 0 -- -- 69
2020-11-18 12:00:00 19.6 8 Sudeste 21 Sudeste 0 -- -- 76
2020-11-18 11:00:00 18.2 4 Noroeste 12 Nordeste 0 -- -- 83
2020-11-18 10:00:00 16.8 7 Nordeste 13 Nordeste 0 -- -- 83
2020-11-18 09:00:00 16 5 Nordeste 10 Nordeste 0 -- -- 86
2020-11-18 08:00:00 15.9 3 Nordeste 5 Este 0 -- -- 90
2020-11-18 07:00:00 16.1 0 Calma 4 Nordeste 0 -- -- 92
2020-11-18 06:00:00 16 0 Calma 4 Noroeste 0 -- -- 92
2020-11-18 05:00:00 16.1 2 Norte 8 Norte 0 -- -- 92
2020-11-18 04:00:00 16.2 0 Calma 9 Nordeste 0 -- -- 92
2020-11-18 03:00:00 16.6 2 Norte 6 Nordeste 0 -- -- 92
2020-11-18 02:00:00 16.7 3 Noroeste 6 Noroeste 0 -- -- 91
2020-11-18 01:00:00 17 4 Norte 5 Norte 0 -- -- 93
2020-11-18 00:00:00 17.1 0 Calma 3 Sudoeste 0 -- -- 93
2020-11-17 23:00:00 17.1 0 Calma 3 Sur 0 -- -- 93
2020-11-17 22:00:00 17 2 Sur 6 Sur 0 -- -- 92
2020-11-17 21:00:00 16.7 2 Este 5 Nordeste 0 -- -- 92
2020-11-17 20:00:00 16.6 3 Nordeste 5 Este 0 -- -- 90
2020-11-17 19:00:00 17.9 2 Noroeste 13 Sudeste 0 -- -- 89
2020-11-17 18:00:00 19.7 7 Sudeste 14 Sudeste 0 -- -- 83
2020-11-17 17:00:00 21.3 8 Sudeste 14 Sudeste 0 -- -- 76
2020-11-17 16:00:00 21.9 7 Sudeste 18 Sudeste 0 -- -- 75
2020-11-17 15:00:00 21.8 8 Sudeste 21 Sudeste 0 -- -- 74
2020-11-17 14:00:00 22.7 8 Sudeste 23 Sur 0 -- -- 72
2020-11-17 13:00:00 23 8 Sudeste 20 Sudeste 0 -- -- 70
2020-11-17 12:00:00 21.2 4 Sudoeste 9 Sudeste 0 -- -- 70
2020-11-17 11:00:00 17.8 2 Oeste 4 Oeste 0 -- -- 77
2020-11-17 10:00:00 13.7 0 Calma 4 Noroeste 0 -- -- 89
2020-11-17 09:00:00 9.9 2 Este 6 Este 0 -- -- 98
2020-11-17 08:00:00 8.7 0 Calma 5 Este 0 -- -- 96
2020-11-17 07:00:00 9 2 Este 5 Nordeste 0 -- -- 96
2020-11-17 06:00:00 9.2 3 Este 6 Nordeste 0 -- -- 95
2020-11-17 05:00:00 9.8 2 Nordeste 7 Este 0 -- -- 95
2020-11-17 04:00:00 10.3 4 Nordeste 6 Nordeste 0 -- -- 95
2020-11-17 03:00:00 10.6 3 Este 6 Nordeste 0 -- -- 94
2020-11-17 02:00:00 11.1 4 Nordeste 5 Nordeste 0 -- -- 93
2020-11-17 01:00:00 11.7 0 Calma 8 Nordeste 0 -- -- 93
2020-11-17 00:00:00 12.3 5 Nordeste 8 Este 0 -- -- 91
2020-11-16 23:00:00 13.2 6 Nordeste 9 Nordeste 0 -- -- 91
2020-11-16 22:00:00 14.2 5 Nordeste 9 Nordeste 0 -- -- 89
2020-11-16 21:00:00 15.4 5 Este 9 Este 0 -- -- 84
2020-11-16 20:00:00 17.9 4 Este 13 Oeste 0 -- -- 74
2020-11-16 19:00:00 21 6 Oeste 11 Sudoeste 0 -- -- 65
2020-11-16 18:00:00 23.3 5 Noroeste 17 Oeste 0 -- -- 58
2020-11-16 17:00:00 25.6 9 Oeste 21 Oeste 0 -- -- 50
2020-11-16 16:00:00 26.3 14 Oeste 28 Oeste 0 -- -- 47
2020-11-16 15:00:00 26.8 13 Oeste 23 Oeste 0 -- -- 48
2020-11-16 14:00:00 26.8 11 Noroeste 22 Oeste 0 -- -- 47
2020-11-16 13:00:00 25.6 3 Noroeste 6 Noroeste 0 -- -- 54
2020-11-16 12:00:00 22 2 Norte 6 Oeste 0 -- -- 71
2020-11-16 11:00:00 18.9 2 Este 5 Nordeste 0 -- -- 78
2020-11-16 10:00:00 13.9 0 Calma 4 Oeste 0 -- -- 98
2020-11-16 09:00:00 11.9 0 Calma 7 Nordeste 0 -- -- 100
2020-11-16 08:00:00 10.8 3 Este 5 Este 0 -- -- 98
2020-11-16 07:00:00 11.1 0 Calma 6 Este 0 -- -- 98
2020-11-16 06:00:00 11.6 2 Sudeste 6 Nordeste 0 -- -- 98
2020-11-16 05:00:00 11.7 0 Calma 5 Este 0 -- -- 97
2020-11-16 04:00:00 12.1 2 Nordeste 6 Nordeste 0 -- -- 97
2020-11-16 03:00:00 12.5 0 Calma 6 Nordeste 0 -- -- 97
2020-11-16 02:00:00 12.8 4 Nordeste 6 Este 0 -- -- 96
2020-11-16 01:00:00 13.1 4 Nordeste 5 Nordeste 0 -- -- 96
2020-11-16 00:00:00 13.5 4 Este 5 Nordeste 0 -- -- 95
2020-11-15 23:00:00 13.9 3 Nordeste 5 Nordeste 0 -- -- 94
2020-11-15 22:00:00 14.9 3 Nordeste 5 Nordeste 0 -- -- 92
2020-11-15 21:00:00 15.7 3 Este 7 Nordeste 0 -- -- 89
2020-11-15 20:00:00 16.9 3 Nordeste 6 Este 0 -- -- 86
2020-11-15 19:00:00 19.2 0 Calma 8 Sudeste 0 -- -- 78
2020-11-15 18:00:00 22.3 3 Este 12 Sudeste 0 -- -- 68
2020-11-15 17:00:00 24.1 7 Sudeste 13 Sur 0 -- -- 58
2020-11-15 16:00:00 24.7 6 Sudeste 13 Sudoeste 0 -- -- 58
2020-11-15 15:00:00 24.5 5 Sudoeste 11 Sur 0 -- -- 59
2020-11-15 14:00:00 23.6 5 Sur 12 Sudoeste 0 -- -- 66
2020-11-15 13:00:00 22.1 4 Sudoeste 9 Oeste 0 -- -- 74
2020-11-15 12:00:00 20.7 4 Sudoeste 6 Noroeste 0 -- -- 78
2020-11-15 11:00:00 17.7 2 Noroeste 4 Noroeste 0 -- -- 92
2020-11-15 10:00:00 15.1 0 Calma 4 Sudoeste 0 -- -- 100
2020-11-15 09:00:00 12 0 Calma 3 Este 0 -- -- 100
2020-11-15 08:00:00 11.1 0 Calma 5 Este 0 -- -- 100
2020-11-15 07:00:00 11.4 2 Sudeste 6 Nordeste 0 -- -- 100
2020-11-15 06:00:00 11.5 4 Noroeste 8 Nordeste 0.2 -- -- 100
2020-11-15 05:00:00 11.8 3 Noroeste 8 Nordeste 0 -- -- 100
2020-11-15 04:00:00 11.8 3 Este 5 Este 0 -- -- 99
2020-11-15 03:00:00 12.3 0 Calma 6 Este 0 -- -- 98
2020-11-15 02:00:00 12.7 4 Este 6 Nordeste 0 -- -- 98
2020-11-15 01:00:00 13.5 3 Sudeste 7 Nordeste 0 -- -- 98
2020-11-15 00:00:00 14.2 5 Este 8 Nordeste 0 -- -- 98
2020-11-14 23:00:00 14.9 4 Nordeste 6 Este 0 -- -- 97
2020-11-14 22:00:00 15.6 2 Nordeste 6 Nordeste 0 -- -- 97
2020-11-14 21:00:00 16 0 Calma 8 Nordeste 0 -- -- 96
2020-11-14 20:00:00 16.7 5 Nordeste 7 Nordeste 0 -- -- 94
2020-11-14 19:00:00 18.3 2 Este 7 Sudeste 0 -- -- 90
2020-11-14 18:00:00 19.5 3 Sudeste 7 Sudeste 0 -- -- 87
2020-11-14 17:00:00 19.9 4 Sudeste 11 Sudeste 0 -- -- 85
2020-11-14 16:00:00 20.6 2 Sudoeste 7 Sudoeste 0 -- -- 83
2020-11-14 15:00:00 20.6 4 Noroeste 8 Oeste 0 -- -- 84
2020-11-14 14:00:00 20 3 Sur 7 Norte 0 -- -- 86
2020-11-14 13:00:00 18.1 0 Calma 5 Norte 0.2 -- -- 96
2020-11-14 12:00:00 17.8 3 Noroeste 6 Oeste 0 -- -- 96
2020-11-14 11:00:00 17.5 0 Calma 5 Noroeste 0 -- -- 97
2020-11-14 10:00:00 16.8 3 Nordeste 8 Este 1.6 -- -- 98
2020-11-14 09:00:00 16.2 2 Nordeste 6 Este 0.2 -- -- 97
2020-11-14 08:00:00 16 0 Calma 3 Nordeste 0 -- -- 96
2020-11-14 07:00:00 16 3 Este 6 Este 0 -- -- 96
2020-11-14 06:00:00 16.2 4 Nordeste 5 Este 0 -- -- 96
2020-11-14 05:00:00 16.2 2 Este 10 Oeste 0 -- -- 96
2020-11-14 04:00:00 16.2 0 Calma 4 Oeste 0 -- -- 97
2020-11-14 03:00:00 16.1 0 Calma 8 Este 0 -- -- 96
2020-11-14 02:00:00 16 6 Este 9 Este 0 -- -- 96
2020-11-14 01:00:00 16 0 Calma 6 Noroeste 0 -- -- 96
2020-11-14 00:00:00 15.9 5 Nordeste 6 Este 0 -- -- 95
2020-11-13 23:00:00 16.2 3 Este 4 Este 0 -- -- 94
2020-11-13 22:00:00 16.7 0 Calma 2 Sur 0 -- -- 92
2020-11-13 21:00:00 17.1 0 Calma 5 Sur 0 -- -- 92
2020-11-13 20:00:00 17.7 3 Sudeste 6 Sudeste 0 -- -- 90
2020-11-13 19:00:00 18 2 Sudeste 9 Sudeste 0 -- -- 88
2020-11-13 18:00:00 18.5 3 Sur 12 Sudeste 0 -- -- 85
2020-11-13 17:00:00 18.8 7 Sur 21 Sudeste 0 -- -- 84
2020-11-13 16:00:00 19.2 11 Sudeste 25 Sudeste 0 -- -- 82
2020-11-13 15:00:00 19.8 15 Sudeste 26 Sudeste 0 -- -- 77
2020-11-13 14:00:00 20.4 12 Sudeste 23 Sudeste 0 -- -- 75
2020-11-13 13:00:00 20.5 14 Sudeste 22 Sudeste 0 -- -- 76
2020-11-13 12:00:00 20.3 12 Sudeste 21 Este 0 -- -- 78
2020-11-13 11:00:00 17.8 3 Noroeste 4 Sudoeste 0 -- -- 86
2020-11-13 10:00:00 15.7 2 Sudoeste 3 Oeste 0 -- -- 93
2020-11-13 09:00:00 14.1 0 Calma 7 Norte 0 -- -- 96
2020-11-13 08:00:00 13.4 0 Calma 3 Norte 0 -- -- 96
2020-11-13 07:00:00 13.2 2 Norte 4 Nordeste 0 -- -- 96
2020-11-13 06:00:00 13 0 Calma 4 Noroeste 0 -- -- 96
2020-11-13 05:00:00 13 0 Calma 4 Noroeste 0 -- -- 95
2020-11-13 04:00:00 12.9 3 Norte 7 Este 0 -- -- 96
2020-11-13 03:00:00 13.1 2 Norte 7 Norte 0 -- -- 95
2020-11-13 02:00:00 13.5 2 Norte 6 Norte 0 -- -- 94
2020-11-13 01:00:00 14 3 Norte 6 Noroeste 0 -- -- 93
2020-11-13 00:00:00 14.7 4 Noroeste 11 Sudeste 0 -- -- 90
2020-11-12 23:00:00 17 2 Oeste 16 Este 0 -- -- 83
2020-11-12 22:00:00 17.6 6 Sudeste 18 Sudeste 0 -- -- 81
2020-11-12 21:00:00 17.8 11 Sudeste 22 Sudeste 0 -- -- 81
2020-11-12 20:00:00 17.8 10 Sudeste 26 Este 0 -- -- 80
2020-11-12 19:00:00 17.9 14 Sudeste 27 Sudeste 0 -- -- 78
2020-11-12 18:00:00 18.5 17 Sudeste 33 Sudeste 0 -- -- 75
2020-11-12 17:00:00 19 19 Sudeste 36 Este 0 -- -- 73
2020-11-12 16:00:00 19.3 18 Sudeste 37 Sudeste 0 -- -- 72
2020-11-12 15:00:00 19.7 17 Sudeste 40 Este 0 -- -- 70
2020-11-12 14:00:00 19.8 23 Este 48 Este 0 -- -- 70
2020-11-12 13:00:00 19.8 23 Este 45 Este 0 -- -- 71
2020-11-12 12:00:00 19.5 25 Sudeste 46 Este 0 -- -- 71
2020-11-12 11:00:00 19.5 19 Sudeste 41 Este 0 -- -- 70
2020-11-12 10:00:00 17.7 14 Este 27 Este 0 -- -- 72
2020-11-12 09:00:00 14.3 6 Noroeste 26 Sudeste 0 -- -- 83
2020-11-12 08:00:00 16 8 Este 22 Este 0 -- -- 77
2020-11-12 07:00:00 16.8 10 Este 27 Este 0 -- -- 72
2020-11-12 06:00:00 17.6 13 Este 31 Este 0 -- -- 67
2020-11-12 05:00:00 17.3 10 Este 23 Este 0 -- -- 73
2020-11-12 04:00:00 17.6 13 Este 32 Este 0 -- -- 74
2020-11-12 03:00:00 17.2 10 Sudeste 24 Sudeste 0 -- -- 77
2020-11-12 02:00:00 17 10 Sudeste 24 Este 0 -- -- 78
2020-11-12 01:00:00 13 4 Sudeste 20 Este 0 -- -- 89
2020-11-12 00:00:00 12.4 2 Nordeste 17 Sudeste 0 -- -- 92
2020-11-11 23:00:00 14.9 6 Este 13 Este 0 -- -- 84
2020-11-11 22:00:00 16.9 6 Sudeste 25 Sudeste 0 -- -- 79
2020-11-11 21:00:00 17.4 13 Sudeste 26 Sudeste 0 -- -- 80
2020-11-11 20:00:00 17.5 13 Sudeste 27 Sudeste 0 -- -- 82
2020-11-11 19:00:00 17.6 13 Sudeste 29 Este 0 -- -- 81
2020-11-11 18:00:00 18 15 Este 32 Este 0 -- -- 80
2020-11-11 17:00:00 18.7 15 Este 36 Sudeste 0 -- -- 77
2020-11-11 16:00:00 19.4 24 Sudeste 39 Este 0 -- -- 73
2020-11-11 15:00:00 19.4 21 Este 39 Este 0 -- -- 71
2020-11-11 14:00:00 19.8 23 Este 43 Este 0 -- -- 69
2020-11-11 13:00:00 19.8 20 Este 42 Este 0 -- -- 70
2020-11-11 12:00:00 19.4 23 Este 44 Este 0 -- -- 73
2020-11-11 11:00:00 19.3 22 Este 45 Sudeste 0 -- -- 73
2020-11-11 10:00:00 19 17 Este 37 Sudeste 0 -- -- 74
2020-11-11 09:00:00 17.7 18 Este 32 Este 0 -- -- 78
2020-11-11 08:00:00 17.2 17 Este 34 Este 0 -- -- 78
2020-11-11 07:00:00 17 14 Este 29 Este 0 -- -- 77
2020-11-11 06:00:00 16.6 13 Este 23 Sudeste 0 -- -- 78
2020-11-11 05:00:00 12.9 5 Este 15 Sudeste 0 -- -- 89
2020-11-11 04:00:00 16.7 10 Este 28 Sudeste 0 -- -- 79
2020-11-11 03:00:00 16.9 10 Sudeste 34 Este 0 -- -- 80
2020-11-11 02:00:00 17 12 Sudeste 26 Este 0 -- -- 82
2020-11-11 01:00:00 11.9 3 Nordeste 15 Este 0 -- -- 97
2020-11-11 00:00:00 11.5 5 Noroeste 8 Noroeste 0 -- -- 96
2020-11-10 23:00:00 11.8 0 Calma 6 Norte 0 -- -- 94
2020-11-10 22:00:00 12.5 0 Calma 6 Nordeste 0 -- -- 93
2020-11-10 21:00:00 13.5 3 Nordeste 7 Nordeste 0 -- -- 92
2020-11-10 20:00:00 14.9 3 Nordeste 7 Este 0 -- -- 89
2020-11-10 19:00:00 17.4 3 Noroeste 6 Oeste 0 -- -- 82
2020-11-10 18:00:00 19.2 4 Sur 17 Sudeste 0 -- -- 75
2020-11-10 17:00:00 21 8 Sudeste 19 Este 0 -- -- 67
2020-11-10 16:00:00 22.1 11 Sudeste 20 Sudeste 0 -- -- 59
2020-11-10 15:00:00 22.2 12 Sudeste 25 Sudeste 0 -- -- 57
2020-11-10 14:00:00 22 11 Sudeste 28 Sudeste 0 -- -- 59
2020-11-10 13:00:00 21.7 14 Sudeste 28 Sudeste 0 -- -- 57
2020-11-10 12:00:00 20.8 5 Sur 9 Sur 0 -- -- 58
2020-11-10 11:00:00 17.7 0 Calma 4 Oeste 0 -- -- 72
2020-11-10 10:00:00 13.7 0 Calma 4 Norte 0 -- -- 85
2020-11-10 09:00:00 10 0 Calma 6 Norte 0 -- -- 97
2020-11-10 08:00:00 8.5 3 Norte 8 Norte 0 -- -- 96
2020-11-10 07:00:00 8.5 4 Nordeste 9 Nordeste 0 -- -- 97
2020-11-10 06:00:00 8.7 5 Nordeste 8 Este 0 -- -- 96
2020-11-10 05:00:00 9.4 5 Nordeste 9 Nordeste 0 -- -- 95
2020-11-10 04:00:00 9.5 5 Nordeste 10 Nordeste 0 -- -- 96
2020-11-10 03:00:00 9.8 7 Nordeste 10 Este 0 -- -- 96
2020-11-10 02:00:00 10 8 Nordeste 10 Nordeste 0 -- -- 96
2020-11-10 01:00:00 10.3 5 Este 8 Este 0 -- -- 95
2020-11-10 00:00:00 11.1 3 Este 6 Este 0 -- -- 93
2020-11-09 23:00:00 11.7 4 Nordeste 9 Norte 0 -- -- 92
2020-11-09 22:00:00 12.7 4 Este 9 Este 0 -- -- 89
2020-11-09 21:00:00 14 3 Nordeste 7 Este 0 -- -- 85
2020-11-09 20:00:00 15.5 4 Norte 11 Norte 0 -- -- 81
2020-11-09 19:00:00 18 5 Noroeste 10 Oeste 0 -- -- 72
2020-11-09 18:00:00 20.5 3 Noroeste 18 Noroeste 0 -- -- 60
2020-11-09 17:00:00 22.1 11 Oeste 23 Oeste 0 -- -- 54
2020-11-09 16:00:00 22.8 13 Oeste 21 Oeste 0 -- -- 59
2020-11-09 15:00:00 23 8 Noroeste 18 Oeste 0 -- -- 61
2020-11-09 14:00:00 21.8 5 Sudeste 10 Sudeste 0 -- -- 67
2020-11-09 13:00:00 20.1 4 Sudoeste 8 Sudoeste 0 -- -- 74
2020-11-09 12:00:00 17.8 0 Calma 6 Este 0 -- -- 81
2020-11-09 11:00:00 14.7 0 Calma 8 Oeste 0 -- -- 92
2020-11-09 10:00:00 12.7 2 Este 5 Nordeste 0 -- -- 95
2020-11-09 09:00:00 11.4 2 Nordeste 5 Oeste 0 -- -- 99
2020-11-09 08:00:00 8.7 2 Nordeste 7 Nordeste 0 -- -- 99
2020-11-09 07:00:00 8.5 3 Este 6 Nordeste 0 -- -- 98
2020-11-09 06:00:00 8.6 3 Nordeste 5 Este 0 -- -- 97
2020-11-09 05:00:00 9 0 Calma 6 Nordeste 0 -- -- 97
2020-11-09 04:00:00 9.5 0 Calma 5 Nordeste 0 -- -- 96
2020-11-09 03:00:00 10 3 Nordeste 5 Nordeste 0 -- -- 96
2020-11-09 02:00:00 10.6 2 Nordeste 6 Nordeste 0 -- -- 96
2020-11-09 01:00:00 10.8 3 Nordeste 6 Nordeste 0 -- -- 95
2020-11-09 00:00:00 11.3 4 Nordeste 6 Nordeste 0 -- -- 94
2020-11-08 23:00:00 12.2 3 Nordeste 5 Nordeste 0 -- -- 92
2020-11-08 22:00:00 13.3 3 Nordeste 5 Nordeste 0 -- -- 90
2020-11-08 21:00:00 13.5 2 Nordeste 8 Nordeste 0 -- -- 87
2020-11-08 20:00:00 14.7 3 Nordeste 6 Nordeste 0 -- -- 84
2020-11-08 19:00:00 17.4 2 Norte 14 Sudeste 0 -- -- 72
2020-11-08 18:00:00 20 7 Sudeste 18 Sudeste 0 -- -- 61
2020-11-08 17:00:00 21.6 9 Sudeste 17 Sudeste 0 -- -- 57
2020-11-08 16:00:00 22.3 6 Sudeste 19 Sudeste 0 -- -- 56
2020-11-08 15:00:00 22 10 Sudeste 21 Este 0 -- -- 58
2020-11-08 14:00:00 21.9 9 Sudeste 23 Sudeste 0 -- -- 59
2020-11-08 13:00:00 21.8 10 Sudeste 21 Sur 0 -- -- 60
2020-11-08 12:00:00 19.9 6 Oeste 10 Oeste 0 -- -- 75
2020-11-08 11:00:00 16.8 0 Calma 5 Norte 0 -- -- 84
2020-11-08 10:00:00 14.2 3 Noroeste 5 Noroeste 0 -- -- 92
2020-11-08 09:00:00 10.7 0 Calma 5 Nordeste 0 -- -- 99
2020-11-08 08:00:00 9 3 Nordeste 4 Nordeste 0 -- -- 98
2020-11-08 07:00:00 9.4 3 Este 4 Este 0 -- -- 98
2020-11-08 06:00:00 9.6 0 Calma 6 Nordeste 0 -- -- 97
2020-11-08 05:00:00 9.8 2 Este 5 Este 0 -- -- 97
2020-11-08 04:00:00 10.3 0 Calma 8 Nordeste 0 -- -- 96
2020-11-08 03:00:00 10.7 4 Este 8 Nordeste 0 -- -- 96
2020-11-08 02:00:00 11.1 4 Nordeste 8 Nordeste 0 -- -- 95
2020-11-08 01:00:00 11.9 3 Este 4 Este 0 -- -- 93
2020-11-08 00:00:00 13 4 Nordeste 8 Este 0 -- -- 92
2020-11-07 23:00:00 13 4 Este 12 Sudoeste 0 -- -- 92
2020-11-07 22:00:00 12.9 6 Nordeste 9 Nordeste 0 -- -- 93
2020-11-07 21:00:00 13.9 6 Nordeste 10 Norte 0 -- -- 90
2020-11-07 20:00:00 15 2 Norte 11 Nordeste 0 -- -- 86
2020-11-07 19:00:00 17.2 2 Noroeste 6 Noroeste 0 -- -- 78
2020-11-07 18:00:00 19.8 5 Oeste 19 Oeste 0 -- -- 66
2020-11-07 17:00:00 21.6 11 Oeste 26 Oeste 0 -- -- 58
2020-11-07 16:00:00 21.9 11 Oeste 33 Noroeste 0 -- -- 62
2020-11-07 15:00:00 22 18 Noroeste 31 Oeste 0 -- -- 59
2020-11-07 14:00:00 21.3 11 Oeste 27 Noroeste 0 -- -- 63
2020-11-07 13:00:00 22 8 Oeste 21 Oeste 0 -- -- 64
2020-11-07 12:00:00 20.4 5 Sudeste 22 Noroeste 0 -- -- 69
2020-11-07 11:00:00 19.3 4 Oeste 16 Noroeste 0 -- -- 80
2020-11-07 10:00:00 17.3 3 Oeste 9 Oeste 0 -- -- 89
2020-11-07 09:00:00 16.5 2 Noroeste 10 Sudoeste 0 -- -- 95
2020-11-07 08:00:00 15.4 3 Nordeste 6 Oeste 0.2 -- -- 95
2020-11-07 07:00:00 15.5 3 Norte 14 Este 0 -- -- 95
2020-11-07 06:00:00 15.7 7 Sudeste 15 Sudeste 0 -- -- 94
2020-11-07 05:00:00 15.9 13 Sudeste 21 Sudeste 0.4 -- -- 92
2020-11-07 04:00:00 15.7 3 Este 17 Nordeste 1 -- -- 95
2020-11-07 03:00:00 15.8 6 Nordeste 12 Este 0.2 -- -- 93
2020-11-07 02:00:00 16 5 Este 8 Nordeste 0.2 -- -- 91
2020-11-07 01:00:00 16.6 3 Sur 6 Sudeste 0 -- -- 87
2020-11-07 00:00:00 16.8 3 Sudeste 11 Este 0 -- -- 82
2020-11-06 23:00:00 17.8 4 Este 21 Este 0 -- -- 75
2020-11-06 22:00:00 17.7 9 Este 18 Este 0.2 -- -- 78
2020-11-06 21:00:00 17.6 5 Este 14 Sudoeste 0.2 -- -- 85
2020-11-06 20:00:00 18.8 6 Este 9 Nordeste 0 -- -- 78
2020-11-06 19:00:00 19.6 2 Sudoeste 13 Nordeste 0 -- -- 74
2020-11-06 18:00:00 20.5 8 Oeste 12 Norte 0 -- -- 71
2020-11-06 17:00:00 22.2 6 Noroeste 16 Sudeste 0 -- -- 62
2020-11-06 16:00:00 23.5 9 Sudeste 41 Este 0 -- -- 55
2020-11-06 15:00:00 23.9 17 Sudeste 32 Sudeste 0 -- -- 51
2020-11-06 14:00:00 25.3 12 Sudeste 44 Sudeste 0 -- -- 48
2020-11-06 13:00:00 24.8 13 Sudeste 53 Sudeste 0 -- -- 47
2020-11-06 12:00:00 24.1 17 Este 49 Este 0 -- -- 48
2020-11-06 11:00:00 24.3 26 Sudeste 49 Este 0 -- -- 47
2020-11-06 10:00:00 23.1 18 Este 50 Este 0 -- -- 52
2020-11-06 09:00:00 22.3 20 Este 46 Sudeste 0 -- -- 56
2020-11-06 08:00:00 21.8 21 Este 36 Este 0 -- -- 56
2020-11-06 07:00:00 21 13 Sudeste 26 Este 0 -- -- 59
2020-11-06 06:00:00 17.2 6 Sudeste 16 Este 0 -- -- 74
2020-11-06 05:00:00 13.5 5 Noroeste 12 Noroeste 0 -- -- 95
2020-11-06 04:00:00 13.6 2 Norte 9 Nordeste 0 -- -- 94
2020-11-06 03:00:00 14.3 3 Este 9 Este 0 -- -- 92
2020-11-06 02:00:00 15.2 7 Este 14 Nordeste 0 -- -- 91
2020-11-06 01:00:00 15.8 11 Nordeste 16 Este 0 -- -- 89
2020-11-06 00:00:00 17.5 4 Noroeste 18 Sudeste 0 -- -- 82
2020-11-05 23:00:00 19.7 6 Nordeste 23 Este 0 -- -- 65
2020-11-05 22:00:00 18.8 4 Oeste 27 Sudeste 0 -- -- 70
2020-11-05 21:00:00 18.7 9 Sudeste 19 Sudeste 0 -- -- 67
2020-11-05 20:00:00 19.2 7 Sur 27 Este 0 -- -- 68
2020-11-05 19:00:00 19.2 14 Sudeste 38 Sudeste 0 -- -- 73
2020-11-05 18:00:00 19.4 20 Sudeste 40 Este 0 -- -- 79
2020-11-05 17:00:00 20 16 Este 40 Sudeste 0 -- -- 81
2020-11-05 16:00:00 20.4 19 Sudeste 35 Este 0 -- -- 81
2020-11-05 15:00:00 20.5 22 Este 38 Este 0 -- -- 82
2020-11-05 14:00:00 20.1 20 Este 38 Este 0 -- -- 83
2020-11-05 13:00:00 20.5 19 Sudeste 46 Sudeste 0 -- -- 83
2020-11-05 12:00:00 20.5 21 Sudeste 33 Sudeste 0.6 -- -- 76
2020-11-05 11:00:00 19.2 15 Sudeste 32 Sudeste 0 -- -- 84
2020-11-05 10:00:00 18.4 14 Sudeste 30 Sudeste 0 -- -- 90
2020-11-05 09:00:00 18.1 19 Sudeste 37 Sudeste 0 -- -- 91
2020-11-05 08:00:00 17.7 13 Sudeste 37 Sudoeste 0.4 -- -- 94
2020-11-05 07:00:00 17.5 10 Sudeste 33 Sudeste 0.6 -- -- 94
2020-11-05 06:00:00 17.6 15 Sudeste 40 Sur 0.2 -- -- 92
2020-11-05 05:00:00 17.3 15 Sudeste 49 Sudeste 1.2 -- -- 92
2020-11-05 04:00:00 17.4 25 Sudeste 46 Este 0.4 -- -- 88
2020-11-05 03:00:00 16.7 24 Sudeste 44 Este 0.2 -- -- 92
2020-11-05 02:00:00 17 23 Sudeste 43 Sudeste 0 -- -- 91
2020-11-05 01:00:00 16.6 14 Sudeste 26 Sudeste 0 -- -- 95
2020-11-05 00:00:00 16.2 13 Sudeste 63 Este 6.6 -- -- 94
2020-11-04 23:00:00 17.1 17 Este 43 Este 4 -- -- 91
2020-11-04 22:00:00 17.7 18 Este 35 Este 0 -- -- 81
2020-11-04 21:00:00 16.8 11 Este 20 Este 0.2 -- -- 85
2020-11-04 20:00:00 16.8 7 Sudeste 23 Este 0 -- -- 87
2020-11-04 19:00:00 16.8 12 Sudeste 26 Sudeste 0 -- -- 87
2020-11-04 18:00:00 17.2 15 Este 26 Este 0 -- -- 86
2020-11-04 17:00:00 17.8 9 Sudeste 23 Sudeste 0 -- -- 86
2020-11-04 16:00:00 17.4 7 Sudeste 22 Este 0 -- -- 91
2020-11-04 15:00:00 16.8 14 Este 25 Este 0.8 -- -- 92
2020-11-04 14:00:00 17.9 7 Sudeste 20 Sudeste 0 -- -- 83
2020-11-04 13:00:00 18.8 12 Sudeste 26 Sudeste 0 -- -- 73
2020-11-04 12:00:00 19.3 12 Este 21 Este 0 -- -- 71
2020-11-04 11:00:00 17.5 3 Oeste 9 Oeste 0 -- -- 89
2020-11-04 10:00:00 16 2 Noroeste 5 Este 0 -- -- 95
2020-11-04 09:00:00 14.4 3 Sudoeste 8 Nordeste 0.4 -- -- 98
2020-11-04 08:00:00 13.9 6 Este 8 Este 0.8 -- -- 97
2020-11-04 07:00:00 13.9 2 Noroeste 5 Este 0 -- -- 96
2020-11-04 06:00:00 13.9 2 Norte 7 Este 0 -- -- 95
2020-11-04 05:00:00 14.1 2 Nordeste 6 Este 0 -- -- 94
2020-11-04 04:00:00 14.4 4 Nordeste 10 Nordeste 0 -- -- 94
2020-11-04 03:00:00 14.3 0 Calma 5 Noroeste 0 -- -- 93
2020-11-04 02:00:00 14.4 0 Calma 3 Este 0 -- -- 93
2020-11-04 01:00:00 14.1 0 Calma 4 Este 0 -- -- 93
2020-11-04 00:00:00 13.6 0 Calma 5 Este 0 -- -- 93
2020-11-03 23:00:00 13.6 3 Nordeste 6 Nordeste 0 -- -- 92
2020-11-03 22:00:00 13.8 4 Nordeste 5 Nordeste 0 -- -- 90
2020-11-03 21:00:00 14.6 3 Este 5 Nordeste 0 -- -- 87
2020-11-03 20:00:00 16.2 0 Calma 4 Sudeste 0 -- -- 84
2020-11-03 19:00:00 17.4 0 Calma 10 Sudeste 0 -- -- 80
2020-11-03 18:00:00 18.7 5 Este 11 Sudeste 0 -- -- 76
2020-11-03 17:00:00 20.4 7 Sudeste 16 Sur 0 -- -- 70
2020-11-03 16:00:00 22.2 9 Sudeste 13 Este 0 -- -- 64
2020-11-03 15:00:00 22.3 6 Sudeste 15 Sudeste 0 -- -- 60
2020-11-03 14:00:00 21.9 5 Sudeste 10 Este 0 -- -- 61
2020-11-03 13:00:00 19.9 3 Sudeste 12 Sur 0 -- -- 66
2020-11-03 12:00:00 17.7 6 Sur 13 Sur 0 -- -- 77
2020-11-03 11:00:00 14.6 5 Sudoeste 9 Sur 0 -- -- 98
2020-11-03 10:00:00 11.9 2 Oeste 5 Noroeste 0 -- -- 99
2020-11-03 09:00:00 9.4 0 Calma 6 Este 0 -- -- 100
2020-11-03 08:00:00 7.2 2 Este 8 Este 0 -- -- 99
2020-11-03 07:00:00 7.3 2 Este 3 Sudeste 0 -- -- 98
2020-11-03 06:00:00 8 4 Este 5 Este 0 -- -- 98
2020-11-03 05:00:00 9 0 Calma 3 Este 0 -- -- 98
2020-11-03 04:00:00 9.4 0 Calma 8 Este 0 -- -- 98
2020-11-03 03:00:00 9.2 0 Calma 5 Este 0 -- -- 97
2020-11-03 02:00:00 9.8 0 Calma 3 Nordeste 0 -- -- 96
2020-11-03 01:00:00 10.2 2 Nordeste 6 Nordeste 0 -- -- 96
2020-11-03 00:00:00 10.9 0 Calma 6 Nordeste 0 -- -- 95
2020-11-02 23:00:00 11.7 0 Calma 5 Este 0 -- -- 94
2020-11-02 22:00:00 12.5 3 Nordeste 6 Nordeste 0 -- -- 93
2020-11-02 21:00:00 13.4 4 Nordeste 6 Nordeste 0 -- -- 91
2020-11-02 20:00:00 15.3 3 Este 5 Nordeste 0 -- -- 87
2020-11-02 19:00:00 17.4 3 Noroeste 14 Sudeste 0 -- -- 83
2020-11-02 18:00:00 20.5 8 Sudeste 15 Sudeste 0 -- -- 72
2020-11-02 17:00:00 22.5 5 Sur 14 Sudeste 0 -- -- 64
2020-11-02 16:00:00 22.2 9 Sudeste 19 Sudeste 0 -- -- 65
2020-11-02 15:00:00 22.4 12 Sudeste 19 Este 0 -- -- 64
2020-11-02 14:00:00 22.9 8 Sudeste 15 Sudeste 0 -- -- 61
2020-11-02 13:00:00 20.6 6 Oeste 10 Noroeste 0 -- -- 72
2020-11-02 12:00:00 18.2 4 Noroeste 9 Oeste 0 -- -- 79
2020-11-02 11:00:00 15.2 4 Noroeste 7 Oeste 0 -- -- 90
2020-11-02 10:00:00 12.6 0 Calma 3 Norte 0 -- -- 93
2020-11-02 09:00:00 9.1 0 Calma 3 Este 0 -- -- 97
2020-11-02 08:00:00 7.1 0 Calma 5 Nordeste 0 -- -- 97
2020-11-02 07:00:00 7.4 3 Nordeste 7 Nordeste 0 -- -- 97
2020-11-02 06:00:00 7.5 3 Este 4 Este 0 -- -- 96
2020-11-02 05:00:00 8 0 Calma 5 Nordeste 0 -- -- 96
2020-11-02 04:00:00 8.5 0 Calma 5 Sudeste 0 -- -- 96
2020-11-02 03:00:00 9.1 3 Este 4 Nordeste 0 -- -- 95
2020-11-02 02:00:00 9.6 2 Nordeste 4 Nordeste 0 -- -- 94
2020-11-02 01:00:00 10.1 0 Calma 5 Nordeste 0 -- -- 94
2020-11-02 00:00:00 10.9 2 Este 5 Este 0 -- -- 92
2020-11-01 23:00:00 11.7 3 Nordeste 6 Nordeste 0 -- -- 91
2020-11-01 22:00:00 12.6 5 Nordeste 7 Nordeste 0 -- -- 89
2020-11-01 21:00:00 13.8 5 Nordeste 6 Nordeste 0 -- -- 86
2020-11-01 20:00:00 15.5 4 Este 5 Este 0 -- -- 82
2020-11-01 19:00:00 18.6 0 Calma 9 Sur 0 -- -- 72
2020-11-01 18:00:00 21.3 5 Sudeste 15 Sudeste 0 -- -- 64
2020-11-01 17:00:00 23.1 9 Sudeste 19 Sudeste 0 -- -- 57
2020-11-01 16:00:00 24.2 12 Sudeste 21 Sudeste 0 -- -- 52
2020-11-01 15:00:00 24.8 12 Sudeste 19 Sudeste 0 -- -- 48
2020-11-01 14:00:00 24.9 9 Sudeste 17 Sudeste 0 -- -- 50
2020-11-01 13:00:00 24.6 5 Sudeste 14 Sudeste 0 -- -- 51
2020-11-01 12:00:00 22.6 5 Sur 12 Sur 0 -- -- 54
2020-11-01 11:00:00 18.6 2 Oeste 4 Oeste 0 -- -- 70
2020-11-01 10:00:00 14.4 2 Oeste 4 Oeste 0 -- -- 88
2020-11-01 09:00:00 10 0 Calma 4 Este 0 -- -- 98
2020-11-01 08:00:00 7.7 2 Nordeste 5 Nordeste 0 -- -- 97
2020-11-01 07:00:00 8.1 0 Calma 5 Este 0 -- -- 97
2020-11-01 06:00:00 8.3 3 Norte 6 Este 0 -- -- 96
2020-11-01 05:00:00 8.8 0 Calma 5 Nordeste 0 -- -- 96
2020-11-01 04:00:00 9.2 2 Este 7 Nordeste 0 -- -- 96
2020-11-01 03:00:00 9.6 0 Calma 6 Nordeste 0 -- -- 94
2020-11-01 02:00:00 10.1 0 Calma 6 Este 0 -- -- 93
2020-11-01 01:00:00 10.8 0 Calma 8 Nordeste 0 -- -- 93
2020-11-01 00:00:00 11.4 2 Norte 6 Este 0 -- -- 92
2020-10-31 23:00:00 12.2 3 Este 6 Este 0 -- -- 89
2020-10-31 22:00:00 13.1 2 Este 7 Este 0 -- -- 87
2020-10-31 21:00:00 14.2 4 Nordeste 6 Nordeste 0 -- -- 83
2020-10-31 20:00:00 16.1 4 Nordeste 8 Este 0 -- -- 78
2020-10-31 19:00:00 19.6 2 Este 10 Sudeste 0 -- -- 67
2020-10-31 18:00:00 22.3 6 Sudeste 15 Sudeste 0 -- -- 57
2020-10-31 17:00:00 24.3 8 Sudeste 17 Sudeste 0 -- -- 48
2020-10-31 16:00:00 25 9 Sudeste 20 Sudeste 0 -- -- 46
2020-10-31 15:00:00 25.5 8 Sur 19 Sudeste 0 -- -- 43
2020-10-31 14:00:00 25.3 9 Sudeste 17 Sudeste 0 -- -- 48
2020-10-31 13:00:00 23.9 3 Oeste 12 Oeste 0 -- -- 56
2020-10-31 12:00:00 21.8 3 Sudoeste 8 Este 0 -- -- 62
2020-10-31 11:00:00 18.5 3 Sudoeste 6 Este 0 -- -- 71
2020-10-31 10:00:00 14.4 2 Noroeste 4 Noroeste 0 -- -- 84
2020-10-31 09:00:00 10.1 2 Nordeste 5 Nordeste 0 -- -- 98
2020-10-31 08:00:00 7.9 3 Este 5 Este 0 -- -- 96
2020-10-31 07:00:00 8.3 2 Este 3 Este 0 -- -- 96
2020-10-31 06:00:00 8.9 0 Calma 8 Nordeste 0 -- -- 96
2020-10-31 05:00:00 8.9 3 Este 5 Nordeste 0 -- -- 95
2020-10-31 04:00:00 9.6 3 Este 6 Nordeste 0 -- -- 95
2020-10-31 03:00:00 10.3 4 Sur 6 Sur 0 -- -- 94
2020-10-31 02:00:00 10.9 2 Nordeste 7 Este 0 -- -- 94
2020-10-31 01:00:00 11.4 3 Este 5 Este 0 -- -- 91
2020-10-31 00:00:00 12.4 0 Calma 4 Nordeste 0 -- -- 88
2020-10-30 23:00:00 13.4 0 Calma 5 Nordeste 0 -- -- 86
2020-10-30 22:00:00 14 3 Nordeste 7 Norte 0 -- -- 84
2020-10-30 21:00:00 14.3 4 Nordeste 8 Nordeste 0 -- -- 82
2020-10-30 20:00:00 15.6 5 Nordeste 9 Nordeste 0 -- -- 78
2020-10-30 19:00:00 18.3 0 Calma 13 Sudoeste 0 -- -- 70
2020-10-30 18:00:00 19.6 6 Sur 27 Sudeste 0 -- -- 63
2020-10-30 17:00:00 20.7 17 Sudeste 34 Sudeste 0 -- -- 61
2020-10-30 16:00:00 22.1 19 Sudeste 37 Sudeste 0 -- -- 54
2020-10-30 15:00:00 22.6 20 Sudeste 38 Sudeste 0 -- -- 48
2020-10-30 14:00:00 22.4 19 Sudeste 42 Sudeste 0 -- -- 48
2020-10-30 13:00:00 23.1 24 Sudeste 44 Sudeste 0 -- -- 40
2020-10-30 12:00:00 23.1 15 Sudeste 34 Sudeste 0 -- -- 42
2020-10-30 11:00:00 21.4 17 Sudeste 28 Sudeste 0 -- -- 48
2020-10-30 10:00:00 14.7 2 Noroeste 4 Norte 0 -- -- 78
2020-10-30 09:00:00 10.8 0 Calma 5 Nordeste 0 -- -- 90
2020-10-30 08:00:00 7.8 0 Calma 5 Este 0 -- -- 94
2020-10-30 07:00:00 8.2 0 Calma 4 Este 0 -- -- 95
2020-10-30 06:00:00 8.5 0 Calma 5 Norte 0 -- -- 94
2020-10-30 05:00:00 8.8 0 Calma 6 Nordeste 0 -- -- 92
2020-10-30 04:00:00 9.2 0 Calma 5 Este 0 -- -- 91
2020-10-30 03:00:00 9.3 3 Nordeste 7 Este 0 -- -- 89
2020-10-30 02:00:00 9.5 3 Nordeste 6 Este 0 -- -- 88
2020-10-30 01:00:00 10 3 Nordeste 6 Nordeste 0 -- -- 85
2020-10-30 00:00:00 10.5 2 Nordeste 4 Este 0 -- -- 80
2020-10-29 23:00:00 11.6 0 Calma 7 Nordeste 0 -- -- 74
2020-10-29 22:00:00 12.4 4 Nordeste 7 Nordeste 0 -- -- 71
2020-10-29 21:00:00 13.9 5 Nordeste 10 Nordeste 0 -- -- 65
2020-10-29 20:00:00 17.1 2 Nordeste 17 Sudeste 0 -- -- 53
2020-10-29 19:00:00 18.7 9 Sur 25 Sudeste 0 -- -- 50
2020-10-29 18:00:00 21 18 Sudeste 33 Sudeste 0 -- -- 39
2020-10-29 17:00:00 22.4 18 Sudeste 33 Sudeste 0 -- -- 34
2020-10-29 16:00:00 23.5 17 Sudeste 31 Este 0 -- -- 31
2020-10-29 15:00:00 23.7 18 Sudeste 36 Sudeste 0 -- -- 35
2020-10-29 14:00:00 23.9 14 Sudeste 32 Sudeste 0 -- -- 39
2020-10-29 13:00:00 23.3 15 Sudeste 29 Sudeste 0 -- -- 43
2020-10-29 12:00:00 21.8 11 Sudeste 22 Sudeste 0 -- -- 45
2020-10-29 11:00:00 17.7 2 Noroeste 5 Norte 0 -- -- 71
2020-10-29 10:00:00 13.2 0 Calma 4 Noroeste 0 -- -- 83
2020-10-29 09:00:00 9.1 2 Nordeste 6 Este 0 -- -- 96
2020-10-29 08:00:00 6.5 2 Nordeste 4 Nordeste 0 -- -- 97
2020-10-29 07:00:00 6.6 3 Nordeste 5 Este 0 -- -- 96
2020-10-29 06:00:00 6.9 2 Este 6 Este 0 -- -- 94
2020-10-29 05:00:00 7.2 0 Calma 5 Nordeste 0 -- -- 94
2020-10-29 04:00:00 7.7 0 Calma 5 Nordeste 0 -- -- 94
2020-10-29 03:00:00 8 3 Nordeste 5 Nordeste 0 -- -- 92
2020-10-29 02:00:00 8.6 3 Nordeste 5 Nordeste 0 -- -- 91
2020-10-29 01:00:00 9.3 3 Este 6 Nordeste 0 -- -- 89
2020-10-29 00:00:00 9.8 4 Nordeste 5 Nordeste 0 -- -- 87
2020-10-28 23:00:00 10.6 3 Nordeste 7 Nordeste 0 -- -- 84
2020-10-28 22:00:00 11.6 4 Este 6 Nordeste 0 -- -- 80
2020-10-28 21:00:00 12.9 3 Nordeste 8 Nordeste 0 -- -- 75
2020-10-28 20:00:00 14.5 5 Nordeste 9 Nordeste 0 -- -- 70
2020-10-28 19:00:00 17.9 2 Este 6 Sudoeste 0 -- -- 58
2020-10-28 18:00:00 21.2 4 Sudeste 13 Sudeste 0 -- -- 43
2020-10-28 17:00:00 22.7 9 Sudeste 18 Sudeste 0 -- -- 37
2020-10-28 16:00:00 23.6 9 Sudeste 24 Sudeste 0 -- -- 36
2020-10-28 15:00:00 24.3 9 Sudeste 18 Sudeste 0 -- -- 34
2020-10-28 14:00:00 24.3 5 Sur 14 Sur 0 -- -- 36
2020-10-28 13:00:00 23.2 6 Sudeste 13 Sudoeste 0 -- -- 36
2020-10-28 12:00:00 21.9 3 Oeste 9 Sudoeste 0 -- -- 42
2020-10-28 11:00:00 19 4 Sudoeste 8 Sudoeste 0 -- -- 51
2020-10-28 10:00:00 14.5 3 Noroeste 4 Oeste 0 -- -- 75
2020-10-28 09:00:00 10.4 2 Este 9 Nordeste 0 -- -- 84
2020-10-28 08:00:00 7.1 5 Nordeste 9 Nordeste 0 -- -- 92
2020-10-28 07:00:00 7.5 5 Nordeste 12 Nordeste 0 -- -- 90
2020-10-28 06:00:00 7.1 4 Este 10 Nordeste 0 -- -- 92
2020-10-28 05:00:00 7.1 4 Nordeste 8 Este 0 -- -- 91
2020-10-28 04:00:00 7.7 3 Nordeste 9 Nordeste 0 -- -- 89
2020-10-28 03:00:00 7.9 7 Este 9 Nordeste 0 -- -- 88
2020-10-28 02:00:00 8.5 5 Nordeste 9 Nordeste 0 -- -- 86
2020-10-28 01:00:00 9 6 Este 11 Nordeste 0 -- -- 85
2020-10-28 00:00:00 9.8 4 Este 9 Este 0 -- -- 82
2020-10-27 23:00:00 10.4 2 Este 10 Noroeste 0 -- -- 80
2020-10-27 22:00:00 11.4 2 Norte 8 Este 0 -- -- 78
2020-10-27 21:00:00 13.7 4 Este 7 Este 0 -- -- 67
2020-10-27 20:00:00 16.2 4 Noroeste 14 Norte 0 -- -- 57
2020-10-27 19:00:00 17.5 6 Norte 14 Noroeste 0 -- -- 54
2020-10-27 18:00:00 20.2 8 Noroeste 22 Noroeste 0 -- -- 48
2020-10-27 17:00:00 22.4 12 Noroeste 22 Noroeste 0 -- -- 42
2020-10-27 16:00:00 23.2 13 Noroeste 23 Norte 0 -- -- 38
2020-10-27 15:00:00 23 8 Noroeste 26 Noroeste 0 -- -- 40
2020-10-27 14:00:00 23.1 7 Noroeste 21 Noroeste 0 -- -- 39
2020-10-27 13:00:00 21.8 9 Oeste 15 Oeste 0 -- -- 41
2020-10-27 12:00:00 20.4 3 Sudoeste 9 Sudoeste 0 -- -- 44
2020-10-27 11:00:00 17.6 3 Oeste 6 Noroeste 0 -- -- 51
2020-10-27 10:00:00 13.9 0 Calma 4 Este 0 -- -- 72
2020-10-27 09:00:00 9.2 0 Calma 8 Este 0 -- -- 92
2020-10-27 08:00:00 5.7 4 Este 8 Este 0 -- -- 95
2020-10-27 07:00:00 5.8 3 Sudeste 8 Este 0 -- -- 95
2020-10-27 06:00:00 6 3 Este 9 Nordeste 0 -- -- 95
2020-10-27 05:00:00 6.1 6 Nordeste 10 Nordeste 0 -- -- 96
2020-10-27 04:00:00 6.2 4 Nordeste 8 Este 0 -- -- 95
2020-10-27 03:00:00 7 2 Este 5 Nordeste 0 -- -- 93
2020-10-27 02:00:00 7.7 2 Norte 7 Nordeste 0 -- -- 93
2020-10-27 01:00:00 8.4 2 Este 8 Sudeste 0 -- -- 91
2020-10-27 00:00:00 9 2 Sudeste 8 Norte 0 -- -- 89